Sandwick, United Kingdom
Current Conditions -  °F | °C
As of 4:20 PM on Wednesday 26 Nov 2014 (Local Time) from EGPB Reporting Station
Scattered Clouds Scattered Clouds  
Wind Chill: 41°   Ceiling: Unl
Heat Index: 48°   Visibility: 6mi
Dew Point: 45°   Wind: 20mph
Humidity: 87%   Direction: 170°S
Pressure: 29.91"   Gusts: NA
Location:  60°N, 1.25°W
Report Text: EGPB 261620Z 17017KT 9999 FEW014 SCT030 09/07 Q1013 TEMPO SHRA
Loading
Personal Weather Stations






























Interactive Weather Map New forecast layout! Learn more

10-Day Weather Forecast

Advertisements
Track Severe Weather on mobile